Time;durP1;ratioP1;P1;durP2;ratioP2;P2;SDS_P1;SDS_P2;PMS_P1;PMS_P2;Temp;Humidity;BMP_temperature;BMP_pressure;BME280_temperature;BME280_humidity;BME280_pressure;Samples;Min_cycle;Max_cycle;Signal;HPM_P1;HPM_P2
2023/05/14 00:04:40;;;;;;;2.63;2.03;;;;;;;17.70;63.42;96583.69;10385496;28;20041;-26
2023/05/14 00:09:40;;;;;;;2.47;2.03;;;;;;;17.72;63.66;96587.91;10383589;28;20054;-25
2023/05/14 00:14:40;;;;;;;2.17;1.80;;;;;;;17.71;62.95;96585.38;10371704;28;20046;-26
2023/05/14 00:19:41;;;;;;;2.20;1.73;;;;;;;17.67;60.92;96584.53;10371119;28;20088;-26
2023/05/14 00:24:42;;;;;;;2.13;1.83;;;;;;;17.65;60.19;96582.84;10388085;28;20505;-25
2023/05/14 00:29:42;;;;;;;1.63;1.40;;;;;;;17.62;60.02;96570.19;10393261;28;20500;-25
2023/05/14 00:34:42;;;;;;;2.33;1.93;;;;;;;17.63;59.70;96566.81;10386793;28;20512;-26
2023/05/14 00:39:43;;;;;;;1.63;1.30;;;;;;;17.61;59.72;96564.28;10372888;28;20164;-26
2023/05/14 00:44:43;;;;;;;1.80;1.70;;;;;;;17.62;59.61;96560.06;10376849;28;20037;-25
2023/05/14 00:49:44;;;;;;;2.30;1.53;;;;;;;17.61;59.65;96560.91;10378711;28;20106;-25
2023/05/14 00:54:45;;;;;;;2.17;1.60;;;;;;;17.59;59.51;96549.94;10378537;28;20042;-25
2023/05/14 00:59:46;;;;;;;1.42;1.25;;;;;;;17.59;59.35;96550.75;10390437;28;20037;-26
2023/05/14 01:04:46;;;;;;;2.50;2.30;;;;;;;17.63;63.08;96549.94;10382580;28;20025;-25
2023/05/14 01:09:51;;;;;;;2.47;2.00;;;;;;;17.67;63.32;96548.25;10385763;28;20034;-25
2023/05/14 01:14:58;;;;;;;2.17;1.90;;;;;;;17.69;63.43;96549.09;10394538;28;20305;-26
2023/05/14 01:19:59;;;;;;;2.45;1.92;;;;;;;17.67;63.04;96543.19;10377293;28;20462;-25
2023/05/14 01:24:59;;;;;;;1.85;1.63;;;;;;;17.66;61.78;96541.50;10367220;28;20091;-25
2023/05/14 01:30:28;;;;;;;2.07;1.80;;;;;;;17.64;60.05;96543.16;10377887;28;20040;-25
2023/05/14 01:35:29;;;;;;;1.88;1.67;;;;;;;17.61;60.16;96530.53;10389336;28;20034;-26
2023/05/14 01:40:32;;;;;;;1.67;1.30;;;;;;;17.60;59.42;96536.44;10351018;28;20048;-25
2023/05/14 01:45:36;;;;;;;1.92;1.55;;;;;;;17.59;59.68;96535.56;10359108;28;20037;-26
2023/05/14 01:50:37;;;;;;;2.03;1.60;;;;;;;17.59;59.65;96539.81;10362929;28;20026;-26
2023/05/14 01:55:38;;;;;;;1.83;1.52;;;;;;;17.59;59.36;96534.75;10357635;28;20038;-25
2023/05/14 02:00:38;;;;;;;1.40;1.30;;;;;;;17.58;59.38;96533.88;10367875;28;20482;-25
2023/05/14 02:05:38;;;;;;;1.30;1.13;;;;;;;17.58;59.19;96538.94;10372599;28;20049;-25
2023/05/14 02:10:39;;;;;;;2.70;2.20;;;;;;;17.63;62.91;96526.28;10370962;28;20044;-26
2023/05/14 02:15:39;;;;;;;2.37;2.13;;;;;;;17.66;63.07;96528.84;10375537;28;20057;-26
2023/05/14 02:20:39;;;;;;;2.27;1.60;;;;;;;17.58;63.23;96517.88;10350378;28;20295;-25
2023/05/14 02:25:40;;;;;;;1.87;1.60;;;;;;;17.65;62.95;96522.09;10349375;28;20035;-25
2023/05/14 02:30:40;;;;;;;2.53;1.80;;;;;;;17.61;61.97;96518.72;10376213;28;20112;-32
2023/05/14 02:35:40;;;;;;;1.87;1.40;;;;;;;17.61;60.53;96522.94;10387187;28;20036;-26
2023/05/14 02:40:43;;;;;;;2.00;1.80;;;;;;;17.60;60.02;96524.63;10371614;28;20288;-26
2023/05/14 02:45:44;;;;;;;1.55;1.33;;;;;;;17.59;59.68;96527.16;10375908;28;20461;-26
2023/05/14 02:50:45;;;;;;;1.70;1.60;;;;;;;17.59;59.59;96514.50;10387026;28;20036;-26
2023/05/14 02:55:46;;;;;;;1.45;1.33;;;;;;;17.58;59.57;96507.75;10384153;28;20033;-25
2023/05/14 03:00:46;;;;;;;1.53;1.43;;;;;;;17.57;59.52;96511.97;10361163;28;20037;-25
2023/05/14 03:05:46;;;;;;;2.50;1.53;;;;;;;17.57;59.56;96511.13;10372597;28;20026;-25
2023/05/14 03:10:47;;;;;;;1.80;1.30;;;;;;;17.57;59.36;96511.97;10364954;28;20040;-26
2023/05/14 03:15:47;;;;;;;3.57;2.27;;;;;;;17.59;62.62;96509.44;10364957;28;20288;-25
2023/05/14 03:20:48;;;;;;;2.50;2.00;;;;;;;17.63;62.96;96508.56;10359893;28;20038;-25
2023/05/14 03:25:48;;;;;;;2.77;2.03;;;;;;;17.64;62.83;96517.84;10367083;28;20034;-26
2023/05/14 03:30:48;;;;;;;1.90;1.67;;;;;;;17.60;62.75;96508.59;10369159;28;20308;-25
2023/05/14 03:35:49;;;;;;;1.93;1.60;;;;;;;17.59;62.08;96505.19;10390003;28;20053;-26
2023/05/14 03:40:49;;;;;;;1.90;1.57;;;;;;;17.59;60.65;96505.19;10379166;28;20038;-25
2023/05/14 03:45:51;;;;;;;1.60;1.50;;;;;;;17.59;59.98;96506.91;10379506;28;20687;-25
2023/05/14 03:50:52;;;;;;;1.80;1.60;;;;;;;17.58;59.91;96497.63;10374576;28;20054;-25
2023/05/14 03:55:52;;;;;;;2.08;1.50;;;;;;;17.57;59.76;96501.00;10377140;28;20421;-25
2023/05/14 04:00:53;;;;;;;1.77;1.35;;;;;;;17.57;59.46;96501.00;10382961;28;20375;-25
2023/05/14 04:05:53;;;;;;;2.13;1.93;;;;;;;17.55;59.23;96497.59;10380953;28;20041;-26
2023/05/14 04:10:54;;;;;;;1.70;1.20;;;;;;;17.55;59.42;96502.66;10385978;28;20318;-25
2023/05/14 04:15:56;;;;;;;1.77;1.50;;;;;;;17.54;59.80;96506.03;10365950;28;20289;-26
2023/05/14 04:20:57;;;;;;;1.85;1.65;;;;;;;17.57;62.25;96511.13;10371051;28;20411;-25
2023/05/14 04:25:58;;;;;;;1.80;1.70;;;;;;;17.60;62.74;96508.59;10377465;28;20040;-25
2023/05/14 04:30:58;;;;;;;1.63;1.35;;;;;;;17.62;63.19;96500.16;10379163;28;20037;-26
2023/05/14 04:35:58;;;;;;;2.07;1.87;;;;;;;17.57;62.95;96501.81;10387731;28;20448;-25
2023/05/14 04:40:59;;;;;;;1.60;1.50;;;;;;;17.60;62.06;96501.00;10386988;28;20034;-26
2023/05/14 04:45:59;;;;;;;1.67;1.20;;;;;;;17.57;60.78;96506.91;10381213;28;20037;-25
2023/05/14 04:50:59;;;;;;;1.70;1.30;;;;;;;17.56;60.24;96507.75;10381262;28;20505;-26
2023/05/14 04:56:00;;;;;;;1.33;1.13;;;;;;;17.56;59.92;96514.50;10369989;28;20300;-25
2023/05/14 05:01:01;;;;;;;1.43;1.33;;;;;;;17.55;59.54;96515.31;10378496;28;20136;-25
2023/05/14 05:06:02;;;;;;;2.35;1.23;;;;;;;17.54;59.40;96514.50;10388482;28;20030;-25
2023/05/14 05:11:03;;;;;;;1.90;1.25;;;;;;;17.54;59.64;96513.63;10377908;28;20474;-25
2023/05/14 05:16:04;;;;;;;1.08;0.98;;;;;;;17.53;59.57;96524.63;10383351;28;20140;-25
2023/05/14 05:21:06;;;;;;;1.63;1.40;;;;;;;17.53;59.08;96517.00;10380267;28;20124;-26
2023/05/14 05:26:07;;;;;;;1.75;1.42;;;;;;;17.55;61.33;96522.91;10384006;28;20084;-26
2023/05/14 05:31:07;;;;;;;2.13;1.80;;;;;;;17.58;62.80;96522.94;10369179;28;20115;-26
2023/05/14 05:36:08;;;;;;;1.90;1.63;;;;;;;17.59;62.69;96519.56;10385445;28;20442;-26
2023/05/14 05:41:08;;;;;;;1.40;1.30;;;;;;;17.55;62.63;96533.03;10375454;28;20033;-25
2023/05/14 05:46:08;;;;;;;1.53;1.33;;;;;;;17.58;62.14;96533.06;10384409;28;20040;-25
2023/05/14 05:51:09;;;;;;;1.57;1.33;;;;;;;17.56;60.87;96530.53;10377093;28;20936;-26
2023/05/14 05:56:12;;;;;;;1.75;1.55;;;;;;;17.54;60.11;96526.28;10386776;28;20315;-26
2023/05/14 06:01:13;;;;;;;2.10;1.90;;;;;;;17.54;60.18;96521.22;10399936;28;20132;-25
2023/05/14 06:06:14;;;;;;;1.63;1.53;;;;;;;17.53;59.72;96522.09;10384273;28;20413;-25
2023/05/14 06:11:15;;;;;;;1.40;1.20;;;;;;;17.53;59.89;96529.66;10383819;28;20459;-25
2023/05/14 06:16:16;;;;;;;1.70;1.60;;;;;;;17.53;59.13;96524.63;10377439;28;20033;-25
2023/05/14 06:21:16;;;;;;;1.40;1.30;;;;;;;17.52;59.61;96522.94;10384467;28;20038;-25
2023/05/14 06:26:16;;;;;;;1.23;1.13;;;;;;;17.51;59.03;96531.38;10375248;28;20030;-26
2023/05/14 06:31:17;;;;;;;1.27;1.17;;;;;;;17.52;59.52;96538.13;10374891;28;20289;-26
2023/05/14 06:36:18;;;;;;;2.10;1.67;;;;;;;17.54;62.50;96521.22;10392112;28;20037;-26
2023/05/14 06:41:18;;;;;;;1.93;1.73;;;;;;;17.58;62.87;96531.34;10392384;28;20504;-25
2023/05/14 06:46:18;;;;;;;1.53;1.40;;;;;;;17.56;63.04;96529.69;10390437;28;20034;-25
2023/05/14 06:51:19;;;;;;;1.40;1.30;;;;;;;17.58;62.46;96522.94;10397242;28;20033;-26
2023/05/14 06:56:20;;;;;;;1.70;1.57;;;;;;;17.55;61.26;96522.91;10388159;28;20038;-25
2023/05/14 07:01:23;;;;;;;1.42;1.20;;;;;;;17.53;60.35;96509.44;10388152;28;20546;-25
2023/05/14 07:06:23;;;;;;;1.30;1.20;;;;;;;17.52;60.26;96513.66;10404919;28;20025;-26
2023/05/14 07:11:24;;;;;;;1.57;1.27;;;;;;;17.52;59.75;96512.81;10387624;28;20038;-25
2023/05/14 07:16:25;;;;;;;2.50;1.57;;;;;;;17.51;59.53;96503.53;10389111;28;20033;-26
2023/05/14 07:21:25;;;;;;;1.23;1.13;;;;;;;17.50;59.40;96504.38;10380459;28;20277;-25
2023/05/14 07:26:25;;;;;;;1.03;0.93;;;;;;;17.49;59.25;96503.50;10385536;28;20034;-26
2023/05/14 07:31:26;;;;;;;1.23;1.13;;;;;;;17.48;59.51;96501.00;10395830;28;20401;-26
2023/05/14 07:36:26;;;;;;;1.13;1.00;;;;;;;17.48;59.33;96506.91;10396841;28;20037;-26
2023/05/14 07:41:26;;;;;;;1.50;1.37;;;;;;;17.54;63.12;96506.03;10386686;28;20386;-25
2023/05/14 07:46:27;;;;;;;1.60;1.50;;;;;;;17.57;62.68;96511.13;10386833;28;20080;-25
2023/05/14 07:51:27;;;;;;;1.20;1.10;;;;;;;17.57;63.33;96501.00;10393602;28;20057;-26
2023/05/14 07:56:27;;;;;;;1.47;1.20;;;;;;;17.56;62.47;96500.16;10388247;28;20335;-25
2023/05/14 08:01:28;;;;;;;1.33;1.13;;;;;;;17.55;61.28;96500.13;10382261;28;20536;-25
2023/05/14 08:06:28;;;;;;;1.30;1.20;;;;;;;17.53;60.47;96504.38;10372782;28;20032;-25
2023/05/14 08:11:28;;;;;;;1.13;1.00;;;;;;;17.51;60.05;96498.47;10373964;28;20041;-26
2023/05/14 08:16:29;;;;;;;1.63;1.53;;;;;;;17.49;59.87;96502.69;10389088;28;20067;-26
2023/05/14 08:21:29;;;;;;;1.30;1.10;;;;;;;17.49;59.75;96498.44;10388404;28;20079;-25
2023/05/14 08:26:30;;;;;;;1.77;1.27;;;;;;;17.48;59.61;96495.94;10403407;28;20034;-25
2023/05/14 08:31:30;;;;;;;1.33;1.20;;;;;;;17.48;59.38;96495.94;10379109;28;20091;-26
2023/05/14 08:36:31;;;;;;;1.33;1.23;;;;;;;17.48;59.32;96501.81;10371512;28;20046;-25
2023/05/14 08:41:32;;;;;;;1.50;1.40;;;;;;;17.47;59.29;96489.16;10370996;28;20038;-25
2023/05/14 08:46:32;;;;;;;1.40;1.30;;;;;;;17.53;62.83;96494.25;10387414;28;20034;-26
2023/05/14 08:51:34;;;;;;;1.48;1.27;;;;;;;17.55;63.26;96492.53;10387552;28;20045;-25
2023/05/14 08:56:35;;;;;;;1.10;1.00;;;;;;;17.58;63.07;96480.72;10385292;28;20489;-25
2023/05/14 09:01:38;;;;;;;1.42;1.27;;;;;;;17.59;62.60;96484.13;10369666;28;20049;-26
2023/05/14 09:06:39;;;;;;;1.30;1.20;;;;;;;17.54;61.77;96479.06;10386652;28;20037;-26
2023/05/14 09:11:46;;;;;;;1.30;1.20;;;;;;;17.53;60.28;96479.06;10391723;28;20037;-25
2023/05/14 09:16:48;;;;;;;1.42;1.30;;;;;;;17.50;60.03;96471.47;10402137;28;20065;-26
2023/05/14 09:21:49;;;;;;;1.20;1.10;;;;;;;17.48;59.79;96466.41;10377946;28;20037;-26
2023/05/14 09:26:51;;;;;;;1.58;1.48;;;;;;;17.48;59.56;96461.34;10393602;28;20029;-26
2023/05/14 09:31:52;;;;;;;1.52;1.25;;;;;;;17.48;59.37;96465.56;10397927;28;20041;-26
2023/05/14 09:36:55;;;;;;;1.38;1.17;;;;;;;17.47;59.29;96468.91;10377654;28;20091;-25
2023/05/14 09:41:56;;;;;;;0.90;0.88;;;;;;;17.47;59.33;96458.78;10388866;28;20035;-26
2023/05/14 09:46:56;;;;;;;1.40;1.30;;;;;;;17.46;59.33;96457.13;10392156;28;20025;-26
2023/05/14 09:51:57;;;;;;;1.50;1.40;;;;;;;17.53;62.32;96458.81;10393307;28;20049;-26
2023/05/14 09:56:57;;;;;;;1.20;1.10;;;;;;;17.55;63.39;96449.50;10380205;28;20037;-26
2023/05/14 10:01:58;;;;;;;1.30;1.20;;;;;;;17.58;63.05;96447.00;10387932;28;20343;-26
2023/05/14 10:06:59;;;;;;;1.52;1.42;;;;;;;17.60;62.63;96445.31;10376709;28;20030;-26
2023/05/14 10:12:00;;;;;;;1.48;1.20;;;;;;;17.55;61.80;96439.38;10387664;28;20046;-25
2023/05/14 10:17:04;;;;;;;1.13;1.00;;;;;;;17.51;60.20;96430.94;10367045;28;20034;-26
2023/05/14 10:22:07;;;;;;;1.10;0.98;;;;;;;17.50;59.93;96433.50;10380462;28;20075;-26
2023/05/14 10:27:08;;;;;;;1.20;1.10;;;;;;;17.48;59.54;96435.19;10378504;28;20070;-25
2023/05/14 10:32:08;;;;;;;1.05;0.90;;;;;;;17.47;59.57;96430.97;10367065;28;20061;-26
2023/05/14 10:37:14;;;;;;;1.08;0.98;;;;;;;17.45;59.05;96436.03;10380870;28;20029;-25
2023/05/14 10:42:23;;;;;;;0.97;0.87;;;;;;;17.46;59.27;96442.78;10369032;28;20433;-25
2023/05/14 10:47:38;;;;;;;1.35;1.13;;;;;;;17.46;59.10;96424.22;10382990;28;20044;-25
2023/05/14 10:52:43;;;;;;;1.30;1.00;;;;;;;17.45;59.21;96420.84;10373663;28;20189;-26
2023/05/14 10:57:45;;;;;;;1.13;1.02;;;;;;;17.48;61.50;96420.03;10381762;28;20084;-26
2023/05/14 11:02:45;;;;;;;1.40;1.30;;;;;;;17.51;63.23;96414.94;10374284;28;20512;-25
2023/05/14 11:07:47;;;;;;;1.27;1.17;;;;;;;17.57;63.15;96414.94;10368703;28;20069;-25
2023/05/14 11:12:50;;;;;;;1.30;1.20;;;;;;;17.59;63.00;96411.53;10385525;28;20084;-25
2023/05/14 11:17:51;;;;;;;1.10;1.00;;;;;;;17.54;62.19;96407.34;10365714;28;20045;-25
2023/05/14 11:22:52;;;;;;;1.02;0.90;;;;;;;17.51;60.77;96404.81;10385544;28;20065;-25
2023/05/14 11:27:57;;;;;;;1.27;1.03;;;;;;;17.47;60.02;96390.47;10387417;28;20116;-26
2023/05/14 11:32:59;;;;;;;1.10;1.00;;;;;;;17.48;59.63;96389.66;10386468;28;20704;-25
2023/05/14 11:37:59;;;;;;;1.10;1.00;;;;;;;17.46;59.65;96386.25;10382234;28;20037;-26
2023/05/14 11:42:59;;;;;;;1.00;0.85;;;;;;;17.45;59.42;96374.44;10384881;28;20030;-25
2023/05/14 11:48:00;;;;;;;0.90;0.90;;;;;;;17.45;59.35;96376.97;10393364;28;20030;-25
2023/05/14 11:53:02;;;;;;;0.83;0.83;;;;;;;17.44;59.19;96372.75;10380991;28;20564;-26
2023/05/14 11:58:03;;;;;;;0.75;0.75;;;;;;;17.44;59.05;96367.72;10389488;28;20034;-26
2023/05/14 12:03:03;;;;;;;1.20;0.90;;;;;;;17.44;59.10;96352.53;10380412;28;20108;-26
2023/05/14 12:08:19;;;;;;;1.30;1.20;;;;;;;17.52;63.20;96389.66;10393252;28;20029;-25
2023/05/14 12:13:20;;;;;;;1.33;1.23;;;;;;;17.56;63.47;96398.91;10374134;28;20376;-26
2023/05/14 12:18:21;;;;;;;1.40;1.30;;;;;;;17.59;62.90;96406.47;10395828;28;20041;-26
2023/05/14 12:23:25;;;;;;;0.80;0.80;;;;;;;17.53;62.24;96393.00;10388409;28;20044;-26
2023/05/14 12:28:27;;;;;;;0.80;0.80;;;;;;;17.50;60.63;96393.00;10387081;28;20026;-26
2023/05/14 12:33:27;;;;;;;1.05;0.95;;;;;;;17.48;59.90;96402.31;10387163;28;20473;-25
2023/05/14 12:38:28;;;;;;;0.83;0.80;;;;;;;17.46;59.95;96396.38;10393765;28;20044;-26
2023/05/14 12:43:30;;;;;;;1.07;0.80;;;;;;;17.50;59.28;96393.84;10396018;28;20288;-26
2023/05/14 12:48:31;;;;;;;0.80;0.80;;;;;;;17.52;58.82;96391.31;10378708;28;20116;-25
2023/05/14 12:53:32;;;;;;;1.07;0.97;;;;;;;17.55;59.18;96397.22;10379426;28;20041;-26
2023/05/14 12:58:33;;;;;;;0.70;0.70;;;;;;;17.57;58.69;96392.16;10395204;28;20084;-26
2023/05/14 13:03:33;;;;;;;1.10;0.97;;;;;;;17.57;58.65;96389.63;10369667;28;20121;-26
2023/05/14 13:08:34;;;;;;;1.02;0.93;;;;;;;17.58;59.07;96376.94;10386129;28;20029;-25
2023/05/14 13:13:34;;;;;;;0.95;0.85;;;;;;;17.60;62.46;96371.91;10384224;28;20057;-26
2023/05/14 13:18:34;;;;;;;1.10;0.90;;;;;;;17.59;62.89;96373.56;10385586;28;20033;-26
2023/05/14 13:23:35;;;;;;;1.00;0.90;;;;;;;17.62;62.49;96377.78;10385521;28;20175;-26
2023/05/14 13:28:35;;;;;;;1.07;0.97;;;;;;;17.59;60.49;96368.50;10377635;28;20041;-25
2023/05/14 13:33:37;;;;;;;0.70;0.70;;;;;;;17.60;59.97;96365.16;10368526;28;20046;-25
2023/05/14 13:38:38;;;;;;;0.80;0.80;;;;;;;17.59;59.36;96352.50;10385038;28;20042;-25
2023/05/14 13:43:38;;;;;;;0.98;0.75;;;;;;;17.57;59.28;96351.66;10377358;28;20045;-25
2023/05/14 13:48:38;;;;;;;0.82;0.82;;;;;;;17.59;59.15;96352.50;10374426;28;20087;-26
2023/05/14 13:53:39;;;;;;;1.00;0.90;;;;;;;17.59;59.70;96342.38;10368318;28;20510;-25
2023/05/14 13:58:39;;;;;;;0.93;0.83;;;;;;;17.58;59.21;96335.63;10384779;28;20034;-25
2023/05/14 14:03:40;;;;;;;0.82;0.82;;;;;;;17.58;59.12;96330.56;10375906;28;20485;-26
2023/05/14 14:08:40;;;;;;;2.23;0.90;;;;;;;17.58;59.10;96330.56;10396190;28;20111;-26
2023/05/14 14:13:43;;;;;;;0.82;0.82;;;;;;;17.57;59.12;96333.94;10376210;28;20038;-26
2023/05/14 14:18:46;;;;;;;0.80;0.70;;;;;;;17.61;62.09;96330.53;10384804;28;20100;-25
2023/05/14 14:23:47;;;;;;;1.00;0.90;;;;;;;17.60;62.67;96323.81;10367059;28;20034;-25
2023/05/14 14:28:47;;;;;;;1.00;0.90;;;;;;;17.63;62.43;96323.78;10384353;28;20025;-25
2023/05/14 14:33:48;;;;;;;0.70;0.70;;;;;;;17.62;61.94;96317.03;10374802;28;20490;-26
2023/05/14 14:38:48;;;;;;;0.70;0.70;;;;;;;17.58;59.44;96308.63;10375555;28;20456;-26
2023/05/14 14:43:48;;;;;;;2.63;1.03;;;;;;;17.58;59.52;96306.09;10366872;28;20375;-26
2023/05/14 14:48:49;;;;;;;0.73;0.50;;;;;;;17.59;59.36;96301.88;10375135;28;20489;-25
2023/05/14 14:53:49;;;;;;;0.80;0.80;;;;;;;17.58;59.17;96312.84;10383765;28;20148;-26
2023/05/14 14:58:49;;;;;;;0.63;0.60;;;;;;;17.57;58.96;96308.63;10374790;28;20041;-26
2023/05/14 15:03:52;;;;;;;0.90;0.70;;;;;;;17.56;59.13;96297.66;10374266;28;20060;-26
2023/05/14 15:08:53;;;;;;;0.93;0.75;;;;;;;17.53;59.19;96287.56;10375627;28;20462;-25
2023/05/14 15:13:53;;;;;;;0.77;0.70;;;;;;;17.55;59.07;96283.31;10399294;28;20037;-26
2023/05/14 15:18:53;;;;;;;0.88;0.82;;;;;;;17.56;59.07;96286.72;10397261;28;20044;-25
2023/05/14 15:23:54;;;;;;;1.00;0.88;;;;;;;17.61;62.25;96292.56;10389872;28;20356;-25
2023/05/14 15:28:55;;;;;;;1.10;1.00;;;;;;;17.59;62.77;96281.63;10389545;28;20038;-25
2023/05/14 15:33:55;;;;;;;1.15;1.05;;;;;;;17.62;62.80;96276.53;10385955;28;20410;-25
2023/05/14 15:38:55;;;;;;;1.10;1.00;;;;;;;17.60;61.15;96268.13;10393936;28;20515;-25
2023/05/14 15:43:57;;;;;;;0.80;0.80;;;;;;;17.59;59.35;96266.44;10404096;28;20375;-25
2023/05/14 15:48:57;;;;;;;0.90;0.70;;;;;;;17.58;59.22;96269.81;10393674;28;20472;-25
2023/05/14 15:53:58;;;;;;;0.80;0.80;;;;;;;17.57;59.07;96268.97;10398969;28;20037;-25
2023/05/14 15:58:58;;;;;;;0.57;0.57;;;;;;;17.58;59.15;96269.81;10388685;28;20281;-25
2023/05/14 16:03:58;;;;;;;0.60;0.60;;;;;;;17.58;59.28;96282.47;10392610;28;20540;-32
2023/05/14 16:09:02;;;;;;;0.73;0.70;;;;;;;17.57;59.02;96273.19;10381790;28;20320;-25
2023/05/14 16:14:02;;;;;;;1.02;0.80;;;;;;;17.57;58.83;96275.72;10407452;28;20140;-25
2023/05/14 16:19:03;;;;;;;0.73;0.70;;;;;;;17.55;58.96;96282.47;10385355;28;20034;-25
2023/05/14 16:24:05;;;;;;;0.50;0.50;;;;;;;17.55;58.81;96282.47;10399758;28;20032;-25
2023/05/14 16:29:05;;;;;;;1.13;0.95;;;;;;;17.60;62.62;96288.38;10382881;28;20035;-25
2023/05/14 16:34:05;;;;;;;0.80;0.80;;;;;;;17.61;62.91;96290.03;10379057;28;20037;-25
2023/05/14 16:39:06;;;;;;;1.10;0.77;;;;;;;17.63;62.98;96288.34;10369258;28;20859;-25
2023/05/14 16:44:07;;;;;;;4.13;1.15;;;;;;;17.55;60.72;96298.50;10370388;28;20790;-25
2023/05/14 16:49:07;;;;;;;3.37;0.80;;;;;;;17.57;59.71;96290.91;10381627;28;20025;-26
2023/05/14 16:54:08;;;;;;;0.90;0.90;;;;;;;17.57;59.16;96298.50;10360083;28;20288;-26
2023/05/14 16:59:08;;;;;;;1.05;0.73;;;;;;;17.57;59.47;96293.44;10374710;28;20346;-25
2023/05/14 17:04:09;;;;;;;1.30;0.87;;;;;;;17.56;59.06;96301.91;10363616;28;20591;-26
2023/05/14 17:09:09;;;;;;;0.77;0.77;;;;;;;17.56;59.07;96289.25;10366711;28;20284;-25
2023/05/14 17:14:10;;;;;;;0.63;0.63;;;;;;;17.57;59.06;96298.50;10367514;28;20543;-25
2023/05/14 17:19:10;;;;;;;0.73;0.60;;;;;;;17.54;58.76;96288.38;10377972;28;20478;-25
2023/05/14 17:24:10;;;;;;;0.70;0.70;;;;;;;17.54;58.94;96301.88;10386955;28;20079;-26
2023/05/14 17:29:11;;;;;;;1.48;0.70;;;;;;;17.53;58.85;96301.88;10392295;28;20033;-25
2023/05/14 17:34:11;;;;;;;2.37;0.93;;;;;;;17.60;63.34;96299.34;10380753;28;20406;-25
2023/05/14 17:39:11;;;;;;;5.97;1.23;;;;;;;17.64;63.89;96301.00;10393874;28;20046;-26
2023/05/14 17:44:12;;;;;;;3.03;1.10;;;;;;;17.70;63.46;96302.66;10391804;28;20044;-26
2023/05/14 17:49:12;;;;;;;2.20;0.60;;;;;;;17.63;60.35;96299.31;10385505;28;20375;-26
2023/05/14 17:54:12;;;;;;;0.70;0.60;;;;;;;17.61;59.35;96310.28;10377413;28;20029;-25
2023/05/14 17:59:13;;;;;;;3.20;0.80;;;;;;;17.59;59.67;96312.00;10378050;28;20029;-25
2023/05/14 18:04:13;;;;;;;2.00;0.60;;;;;;;17.58;59.17;96313.66;10363822;28;20041;-25
2023/05/14 18:09:14;;;;;;;3.88;0.70;;;;;;;17.57;59.62;96317.06;10363098;28;20036;-25
2023/05/14 18:14:16;;;;;;;5.03;1.00;;;;;;;17.57;59.73;96313.69;10392505;28;20033;-25
2023/05/14 18:19:16;;;;;;;2.50;0.90;;;;;;;17.56;59.46;96317.91;10375585;28;20303;-25
2023/05/14 18:24:17;;;;;;;2.73;1.27;;;;;;;17.53;59.79;96327.19;10379766;28;20041;-25
2023/05/14 18:29:17;;;;;;;1.37;1.27;;;;;;;17.56;59.62;96328.03;10365859;28;20053;-25
2023/05/14 18:34:17;;;;;;;2.57;1.20;;;;;;;17.62;63.81;96333.09;10370240;28;20029;-25
2023/05/14 18:39:18;;;;;;;5.13;1.47;;;;;;;17.64;63.95;96328.84;10368640;28;20041;-25
2023/05/14 18:44:18;;;;;;;3.73;1.93;;;;;;;17.65;62.79;96347.44;10362398;28;20041;-25
2023/05/14 18:49:18;;;;;;;1.97;0.77;;;;;;;17.62;60.39;96342.34;10366913;28;20300;-26
2023/05/14 18:54:19;;;;;;;0.87;0.67;;;;;;;17.63;59.34;96344.88;10364273;28;20539;-26
2023/05/14 18:59:19;;;;;;;1.03;0.80;;;;;;;17.61;59.53;96346.59;10355718;28;20040;-26
2023/05/14 19:04:19;;;;;;;1.07;1.00;;;;;;;17.63;59.59;96354.16;10361629;28;20327;-26
2023/05/14 19:09:20;;;;;;;2.87;0.90;;;;;;;17.63;59.47;96364.28;10359707;28;20052;-26
2023/05/14 19:14:20;;;;;;;2.50;0.80;;;;;;;17.61;59.16;96364.31;10374174;28;20287;-26
2023/05/14 19:19:21;;;;;;;1.97;0.70;;;;;;;17.60;59.27;96365.16;10370362;28;20303;-26
2023/05/14 19:24:21;;;;;;;3.65;1.20;;;;;;;17.64;63.43;96373.56;10365451;28;20044;-26
2023/05/14 19:29:21;;;;;;;4.95;1.48;;;;;;;17.64;64.07;96386.22;10383695;28;20040;-26
2023/05/14 19:34:22;;;;;;;3.70;1.33;;;;;;;17.65;63.92;96382.88;10373563;28;20033;-25
2023/05/14 19:39:22;;;;;;;3.50;1.13;;;;;;;17.61;61.97;96389.63;10364386;28;20324;-26
2023/05/14 19:44:22;;;;;;;2.23;0.90;;;;;;;17.59;60.12;96377.81;10361166;28;20383;-26
2023/05/14 19:49:23;;;;;;;2.50;0.90;;;;;;;17.57;60.13;96394.69;10375528;28;20131;-26
2023/05/14 19:54:23;;;;;;;1.93;0.70;;;;;;;17.57;59.91;96389.63;10384738;28;20033;-25
2023/05/14 19:59:24;;;;;;;1.70;1.00;;;;;;;17.55;59.74;96391.31;10382939;28;20095;-26
2023/05/14 20:04:24;;;;;;;2.20;1.17;;;;;;;17.54;59.68;96392.16;10386155;28;20421;-25
2023/05/14 20:09:25;;;;;;;2.08;0.95;;;;;;;17.55;60.04;96391.31;10374016;28;20018;-25
2023/05/14 20:14:25;;;;;;;2.50;1.43;;;;;;;17.63;65.25;96399.72;10375807;28;20045;-25
2023/05/14 20:19:26;;;;;;;5.23;1.10;;;;;;;17.64;65.22;96391.28;10371943;28;20099;-25
2023/05/14 20:24:27;;;;;;;2.47;1.00;;;;;;;17.64;64.00;96393.81;10370792;28;20040;-26
2023/05/14 20:29:27;;;;;;;1.70;0.82;;;;;;;17.60;60.68;96409.88;10379752;28;20407;-25
2023/05/14 20:34:28;;;;;;;2.93;1.27;;;;;;;17.55;60.30;96391.31;10372112;28;20038;-26
2023/05/14 20:39:28;;;;;;;3.03;0.87;;;;;;;17.55;60.07;96386.25;10376037;28;20248;-26
2023/05/14 20:44:28;;;;;;;1.37;0.83;;;;;;;17.52;59.97;96376.13;10395104;28;20288;-26
2023/05/14 20:49:29;;;;;;;1.07;0.80;;;;;;;17.54;59.81;96371.91;10390156;28;20045;-26
2023/05/14 20:54:29;;;;;;;1.30;0.70;;;;;;;17.52;60.14;96376.13;10386794;28;20065;-26
2023/05/14 20:59:29;;;;;;;1.13;1.00;;;;;;;17.51;59.79;96379.50;10382958;28;20116;-26
2023/05/14 21:04:30;;;;;;;2.80;1.10;;;;;;;17.56;63.57;96373.59;10394401;28;20407;-25
2023/05/14 21:09:33;;;;;;;2.28;1.20;;;;;;;17.58;65.00;96366.81;10388569;28;20449;-25
2023/05/14 21:14:35;;;;;;;1.48;1.10;;;;;;;17.61;64.77;96366.84;10378087;28;20516;-26
2023/05/14 21:19:36;;;;;;;2.60;2.10;;;;;;;17.61;63.85;96366.84;10369877;28;20069;-25
2023/05/14 21:24:36;;;;;;;1.90;1.20;;;;;;;17.56;61.09;96370.22;10385533;28;20040;-25
2023/05/14 21:29:37;;;;;;;1.85;0.90;;;;;;;17.54;60.49;96374.44;10389885;28;20371;-26
2023/05/14 21:34:37;;;;;;;1.83;0.70;;;;;;;17.53;60.25;96372.75;10377581;28;20053;-26
2023/05/14 21:39:38;;;;;;;1.17;0.80;;;;;;;17.53;60.06;96382.88;10381635;28;20038;-25
2023/05/14 21:44:38;;;;;;;1.07;0.80;;;;;;;17.51;59.84;96379.50;10377200;28;20033;-26
2023/05/14 21:49:39;;;;;;;1.00;0.83;;;;;;;17.50;60.04;96372.75;10382266;28;20038;-26
2023/05/14 21:54:39;;;;;;;2.17;0.63;;;;;;;17.50;59.69;96367.72;10378462;28;20297;-26
2023/05/14 21:59:40;;;;;;;2.63;1.00;;;;;;;17.54;63.45;96365.16;10369786;28;20116;-26
2023/05/14 22:04:40;;;;;;;2.33;0.97;;;;;;;17.57;65.29;96384.56;10372505;28;20038;-25
2023/05/14 22:09:41;;;;;;;2.72;1.08;;;;;;;17.59;64.89;96393.81;10377259;28;20037;-25
2023/05/14 22:14:41;;;;;;;1.30;0.90;;;;;;;17.59;64.48;96378.63;10374710;28;20575;-26
2023/05/14 22:19:41;;;;;;;1.03;0.90;;;;;;;17.55;61.62;96401.41;10369014;28;20045;-26
2023/05/14 22:24:42;;;;;;;0.97;0.60;;;;;;;17.53;60.93;96413.25;10375126;28;20044;-26
2023/05/14 22:29:42;;;;;;;0.93;0.70;;;;;;;17.51;60.28;96409.88;10379119;28;20850;-26
2023/05/14 22:34:43;;;;;;;0.95;0.85;;;;;;;17.51;60.13;96425.88;10380710;28;20117;-25
2023/05/14 22:39:43;;;;;;;1.52;0.70;;;;;;;17.51;59.79;96437.72;10392593;28;20182;-26
2023/05/14 22:44:43;;;;;;;1.43;0.83;;;;;;;17.50;60.10;96434.34;10381805;28;20090;-25
2023/05/14 22:49:44;;;;;;;0.90;0.70;;;;;;;17.48;59.80;96409.91;10381421;28;20299;-25
2023/05/14 22:54:45;;;;;;;0.80;0.73;;;;;;;17.50;59.69;96403.13;10369566;28;20350;-25
2023/05/14 22:59:45;;;;;;;1.95;0.95;;;;;;;17.53;64.85;96393.84;10374472;28;20555;-25
2023/05/14 23:04:46;;;;;;;1.53;1.00;;;;;;;17.56;65.42;96380.34;10366838;28;20025;-26
2023/05/14 23:09:46;;;;;;;0.90;0.80;;;;;;;17.59;64.96;96347.44;10382774;28;20030;-26
2023/05/14 23:14:46;;;;;;;1.83;1.03;;;;;;;17.56;63.50;96377.81;10365439;28;20095;-25
2023/05/14 23:19:47;;;;;;;2.00;1.00;;;;;;;17.52;61.50;96369.41;10384098;28;20030;-26